Date,TemperatureHighF,TemperatureAvgF,TemperatureLowF,DewpointHighF,DewpointAvgF,DewpointLowF,HumidityHigh,HumidityAvg,HumidityLow,PressureMaxIn,PressureMinIn,WindSpeedMaxMPH,WindSpeedAvgMPH,GustSpeedMaxMPH,PrecipitationSumIn
2013-1-1,20,5,-11,17,0,-17,86,78,68,30.22,29.99,9,2,9,0.00
2013-1-2,22,17,14,18,14,12,90,88,84,30.03,29.90,10,2,10,0.00
2013-1-3,21,14,10,17,9,5,87,81,71,30.22,30.03,13,5,13,0.00
2013-1-4,30,21,11,19,14,7,85,74,62,30.07,29.96,13,4,13,0.00
2013-1-5,25,17,8,16,12,4,89,79,67,30.03,29.81,10,2,10,0.00
2013-1-6,22,16,11,15,11,5,89,79,66,30.17,29.96,12,3,12,0.00
2013-1-7,36,30,20,27,23,16,87,77,68,29.97,29.84,15,4,15,0.00
2013-1-8,35,27,13,30,22,10,91,83,75,29.93,29.72,13,3,13,0.00
2013-1-9,35,31,24,28,24,18,86,74,61,30.31,29.87,19,5,19,0.00
2013-1-10,33,31,29,26,24,22,78,77,74,30.25,30.22,8,3,8,0.00
2013-1-11,40,40,40,38,38,38,93,93,93,29.36,29.35,7,6,7,0.00
2013-1-12,39,16,6,38,10,-1,93,77,68,30.04,29.35,26,8,26,0.00
2013-1-13,13,7,3,5,1,-2,81,77,69,30.19,29.99,12,3,12,0.00
2013-1-14,15,9,6,6,3,1,87,77,67,30.35,30.19,14,3,14,0.00
2013-1-15,31,22,9,20,14,5,86,73,58,30.22,29.80,15,3,15,0.00
2013-1-16,38,27,13,33,21,4,92,78,56,30.17,29.62,13,5,13,0.00
2013-1-17,21,13,4,13,5,-2,80,70,55,30.34,30.17,11,3,11,0.00
2013-1-18,43,32,18,34,25,12,86,78,64,30.22,29.69,13,5,13,0.00
2013-1-19,42,25,4,33,18,-3,93,77,56,30.19,29.63,25,6,28,0.00
2013-1-20,12,5,-1,3,-4,-9,82,68,53,30.34,30.18,15,5,15,0.01
2013-1-21,0,-4,-10,-9,-13,-17,76,67,59,30.30,30.20,15,5,15,0.00
2013-1-22,8,-1,-9,0,-9,-15,75,69,61,30.33,30.17,9,2,9,0.00
2013-1-23,20,10,-2,11,0,-14,84,66,49,30.53,30.09,19,4,19,0.00
2013-1-24,15,4,-4,4,-7,-15,66,60,50,30.60,30.11,15,5,15,0.00
2013-1-25,21,14,5,15,5,-2,80,68,55,30.25,29.90,17,6,17,0.00
2013-1-26,26,14,0,14,5,-5,81,66,53,30.29,30.05,15,4,15,0.00
2013-1-27,34,31,26,31,22,14,94,70,57,30.06,29.79,12,5,12,0.00
2013-2-9,30,30,29,27,26,26,88,87,86,29.89,29.87,12,8,12,0.00
2013-2-10,35,32,29,34,30,26,95,92,86,29.87,29.23,19,6,19,0.00
2013-2-11,31,26,18,30,21,12,95,82,74,29.99,29.30,19,6,19,0.00
2013-2-12,37,26,16,26,19,11,87,77,63,30.00,29.76,12,3,12,0.00
2013-2-13,40,30,18,33,24,14,94,81,63,29.76,29.52,9,2,9,0.00
2013-2-14,34,28,15,32,20,6,93,74,55,30.13,29.53,13,4,13,0.00
2013-2-15,22,13,5,8,4,0,80,69,54,30.24,30.13,10,3,10,0.00
2013-2-16,23,10,2,11,3,-3,83,74,56,30.20,30.04,5,1,5,0.00
2013-2-17,33,24,9,24,16,4,83,74,62,30.05,29.57,17,8,19,0.00
2013-2-18,34,24,7,31,19,2,90,79,72,29.78,29.47,19,6,19,0.00
2013-2-19,9,5,-1,2,-3,-8,81,69,58,30.26,29.78,19,6,19,0.00
2013-2-24,25,23,20,20,18,14,81,79,77,30.05,30.04,1,0,1,0.00
2013-2-25,44,29,15,30,22,11,87,76,57,30.06,29.98,7,1,7,0.00
2013-2-26,22,14,11,20,10,6,92,85,83,30.00,29.92,6,0,6,0.00
2013-2-28,28,26,25,20,18,17,74,72,71,30.15,30.14,13,5,13,0.00
2013-3-1,37,26,17,23,17,10,75,68,51,30.28,30.15,13,4,13,0.00
2013-3-2,39,21,6,18,9,0,82,61,37,30.29,30.12,8,1,8,0.00
2013-3-3,34,26,17,15,12,8,71,55,41,30.12,29.92,16,5,16,0.00
2013-3-4,28,25,23,22,19,14,92,78,57,29.98,29.88,19,8,19,0.00
2013-3-5,32,27,22,26,23,18,92,86,77,30.24,29.91,13,4,13,0.00
2013-3-6,38,24,9,23,17,3,85,75,53,30.35,30.24,12,3,12,0.00
2013-3-7,32,19,3,21,12,-2,83,73,61,30.33,30.22,13,3,13,0.00
2013-3-8,41,30,13,31,23,9,86,77,64,30.26,30.02,14,4,14,0.00
2013-3-9,37,36,34,36,34,29,94,92,76,30.03,29.65,13,4,13,0.00
2013-3-10,35,34,31,34,30,26,95,87,82,29.89,29.71,21,7,21,0.00
2013-3-11,33,29,22,26,23,17,84,79,70,29.81,29.70,14,5,14,0.00
2013-3-12,31,26,21,22,18,13,82,72,60,30.13,29.77,17,5,17,0.00
2013-3-13,22,20,18,15,14,13,80,77,74,30.18,30.13,11,3,11,0.00
2013-3-18,23,17,12,15,10,6,81,76,67,29.78,29.63,22,11,22,0.00
2013-3-19,26,15,7,10,4,0,77,63,41,30.14,29.77,21,8,21,0.00
2013-3-20,27,15,7,9,3,-2,69,59,44,30.17,30.06,16,6,16,0.00
2013-3-21,11,8,4,2,0,-4,70,68,66,30.07,30.04,3,0,3,0.00
2013-3-26,35,30,26,23,21,19,77,71,60,30.25,30.22,6,2,6,0.00
2013-3-27,50,32,16,29,19,12,84,61,35,30.29,30.24,9,1,9,0.00
2013-3-28,48,33,18,30,22,13,82,65,47,30.29,30.22,10,2,10,0.00
2013-3-29,54,40,29,38,32,22,84,72,55,30.23,30.02,13,4,13,0.00
2013-3-30,59,44,34,46,38,32,92,79,56,30.02,29.82,14,4,14,0.00
2013-3-31,46,35,25,32,25,15,93,70,35,30.05,29.77,19,6,19,0.00
2013-4-1,41,28,18,20,16,12,76,61,38,30.22,30.05,13,4,13,0.00
2013-4-2,46,33,22,22,16,12,77,51,33,30.31,30.20,14,3,14,0.00
2013-4-3,50,35,18,32,22,12,83,61,43,30.34,30.02,19,5,19,0.00
2013-4-4,58,46,39,36,32,27,79,59,34,30.04,29.96,18,6,18,0.00
2013-4-8,42,41,41,39,38,38,90,89,88,29.98,29.94,15,5,15,0.00
2013-4-9,43,39,35,38,35,33,92,85,70,30.02,29.90,24,9,24,0.00
2013-4-10,37,34,30,32,28,24,94,79,64,30.14,29.84,22,7,22,0.00
2013-4-11,36,34,31,33,31,26,95,90,66,29.86,29.63,18,6,18,0.00
2013-4-12,36,33,28,31,29,26,93,87,78,29.77,29.63,11,3,11,0.00
2013-4-14,38,34,31,36,32,27,94,92,83,29.74,29.42,22,6,22,0.00
2013-4-15,40,36,32,34,30,26,91,77,68,29.94,29.50,23,8,23,0.00
2013-4-16,48,38,33,32,29,27,84,70,52,30.26,29.94,10,4,10,0.00
2013-4-17,40,37,33,36,32,28,94,80,71,30.26,29.86,13,5,13,0.00
2013-4-18,35,33,32,33,31,30,94,93,90,29.88,29.48,16,7,16,0.00
2013-4-19,41,35,30,30,26,20,93,71,54,29.95,29.46,22,7,22,0.00
2013-4-20,43,34,19,29,19,12,83,55,33,30.25,29.95,8,2,8,0.00
2013-4-21,52,42,34,47,37,20,94,83,57,30.26,29.97,23,7,23,0.00
2013-4-22,44,37,32,38,33,31,94,86,67,30.16,30.06,16,5,16,0.00
2013-4-23,44,36,30,32,27,21,94,71,48,30.12,30.03,13,3,13,0.00
2013-4-24,51,38,26,36,29,20,89,72,44,30.04,29.86,20,4,20,0.00
2013-4-25,52,42,33,33,31,28,87,67,41,30.17,29.95,13,5,13,0.00
2013-4-26,74,58,45,48,41,32,72,54,32,30.10,29.93,19,5,19,0.00
2013-4-27,64,46,37,47,38,33,89,74,52,30.10,30.05,7,1,7,0.00
2013-5-2,41,40,38,28,27,27,63,60,57,30.39,30.36,14,5,14,0.00
2013-5-3,38,35,33,34,30,25,89,81,63,30.36,30.10,20,7,20,0.00
2013-5-4,53,41,34,44,37,31,92,86,71,30.12,30.05,15,5,15,0.00
2013-5-5,71,51,39,53,42,36,89,73,51,30.13,30.04,9,2,9,0.00
2013-5-6,76,60,42,53,47,39,91,64,36,30.07,29.97,9,1,9,0.00
2013-5-7,78,64,46,56,48,42,90,60,34,30.03,29.92,9,2,9,0.00
2013-5-8,77,64,54,57,52,47,90,68,38,29.98,29.89,11,2,11,0.00
2013-5-9,61,55,46,55,50,32,89,82,57,30.05,29.91,20,6,20,0.00
2013-5-10,69,54,38,43,32,26,73,48,23,30.07,29.84,12,3,12,0.00
2013-5-11,55,49,40,43,29,22,68,48,31,30.14,29.83,24,8,24,0.00
2013-5-12,63,48,33,31,25,19,70,42,21,30.18,30.05,15,3,15,0.00
2013-5-13,73,56,34,48,36,26,84,51,32,30.07,29.62,20,6,20,0.00
2013-5-14,99,75,49,58,47,29,83,42,15,29.65,29.42,21,5,21,0.00
2013-5-15,78,67,52,51,47,41,71,50,34,29.90,29.64,14,3,14,0.00
2013-5-16,83,71,52,53,45,35,75,43,26,29.89,29.80,16,4,16,0.00
2013-5-17,69,58,55,56,51,38,93,81,32,29.96,29.85,15,8,15,0.00
2013-5-18,81,66,56,67,60,54,96,81,57,29.98,29.75,20,6,20,0.00
2013-5-19,81,70,64,68,64,62,95,83,62,29.77,29.51,28,5,28,0.00
2013-5-20,72,66,59,64,60,55,93,81,63,29.56,29.47,16,5,16,0.00
2013-5-21,67,61,57,59,57,54,93,87,66,29.59,29.48,12,3,12,0.00
2013-5-22,53,51,47,51,48,46,94,92,79,29.94,29.68,15,4,15,0.00
2013-5-23,65,55,45,46,39,32,85,58,33,30.30,29.94,15,4,15,0.00
2013-5-24,68,55,36,50,41,32,88,63,39,30.33,30.12,19,4,19,0.00
2013-5-25,60,55,53,51,48,44,90,78,66,30.22,30.17,20,8,20,0.00
2013-5-26,57,54,52,50,45,41,80,72,62,30.18,29.99,28,9,28,0.00
2013-5-27,60,56,53,56,52,49,94,86,76,30.01,29.80,19,6,19,0.00
2013-5-28,60,56,53,57,54,51,95,92,88,29.80,29.68,12,3,12,0.00
2013-5-29,74,64,53,70,61,51,96,90,81,29.79,29.61,14,4,14,0.00
2013-5-30,76,69,64,65,63,61,94,82,66,29.65,29.49,21,8,21,0.00
2013-5-31,78,69,61,62,58,52,90,69,44,29.54,29.49,22,4,22,0.00
2013-6-1,72,60,52,62,54,44,86,78,66,29.91,29.52,17,3,17,0.00
2013-6-2,68,58,50,48,44,41,78,61,42,30.05,29.91,15,4,15,0.00
2013-6-3,69,60,44,54,45,40,92,61,39,30.04,29.89,13,2,13,0.00
2013-6-4,63,59,55,54,51,46,90,74,57,30.04,29.95,16,6,16,0.00
2013-6-5,66,58,54,60,54,50,95,89,77,30.02,29.89,10,3,10,0.00
2013-6-6,56,54,52,53,51,49,93,90,86,30.00,29.92,10,3,10,0.00
2013-6-7,65,59,54,55,53,51,91,81,67,30.02,29.88,5,1,5,0.00
2013-6-8,70,63,54,58,54,51,92,74,56,29.89,29.85,14,3,14,0.00
2013-6-9,63,59,57,57,55,54,92,89,79,29.87,29.74,20,8,20,0.00
2013-6-10,61,60,60,57,57,57,89,88,87,29.82,29.81,0,0,0,0.00
2013-6-11,78,67,55,70,63,53,95,87,74,29.87,29.77,10,2,10,0.00
2013-6-12,72,66,62,68,64,57,96,90,75,29.90,29.75,12,3,12,0.00
2013-6-13,76,65,58,61,55,51,78,71,54,30.07,29.89,9,3,9,0.00
2013-6-24,81,75,68,72,69,64,93,80,70,29.88,29.77,11,4,11,0.00
2013-6-25,84,75,66,75,69,62,91,81,71,29.81,29.68,12,4,12,0.00
2013-6-26,89,79,71,78,71,65,95,78,54,29.80,29.63,12,3,12,0.00
2013-6-27,87,78,67,70,63,55,90,62,34,29.81,29.76,17,3,17,0.00
2013-6-28,75,71,67,62,59,57,75,66,57,29.79,29.75,14,4,14,0.00
2013-7-7,91,85,75,73,71,67,81,63,53,29.86,29.78,14,3,14,0.00
2013-7-8,90,79,69,74,69,65,89,72,55,29.97,29.85,6,2,6,0.00
2013-7-9,84,77,70,74,70,65,94,79,66,29.93,29.73,15,4,15,0.00
2013-7-10,82,73,63,65,59,56,81,64,45,30.03,29.89,13,3,13,0.00
2013-7-11,64,61,59,59,57,56,90,86,81,30.07,30.02,1,0,1,0.00
2013-7-22,88,76,67,75,66,58,91,73,50,29.82,29.66,13,4,13,0.00
2013-7-26,73,66,58,64,57,48,92,74,58,30.05,29.88,15,4,15,0.00
2013-7-27,65,58,53,52,49,46,85,71,57,30.05,29.90,14,4,14,0.00
2013-7-28,75,62,53,57,51,46,81,68,51,30.04,29.93,11,3,11,0.00
2013-7-29,78,66,51,60,55,48,93,70,47,30.10,30.03,10,2,10,0.00
2013-7-30,72,67,63,66,62,57,89,82,70,30.07,30.01,7,1,7,0.00
2013-7-31,79,66,60,70,62,58,94,89,68,30.05,30.01,6,1,6,0.00
2013-8-4,73,69,62,60,57,54,79,66,54,30.15,29.98,8,2,8,0.00
2013-8-5,80,67,60,70,62,55,95,86,67,30.00,29.77,9,2,9,0.00
2013-8-6,84,70,57,71,62,55,93,79,58,29.83,29.66,9,2,13,0.00
2013-8-7,78,67,59,61,58,51,93,73,44,30.01,29.77,11,2,11,0.00
2013-8-8,75,64,54,63,58,51,92,81,60,30.03,29.96,6,1,6,0.00
2013-8-9,78,68,57,65,57,53,94,71,48,30.10,29.97,10,2,10,0.00
2013-8-10,78,68,60,60,57,53,86,69,45,30.16,30.06,7,1,7,0.00
2013-8-11,82,70,64,68,62,58,89,78,59,30.06,29.96,6,2,6,0.00
2013-8-12,81,72,62,67,60,55,92,69,45,30.03,29.97,13,2,13,0.00
2013-8-13,78,67,55,60,53,48,91,64,39,30.17,30.03,9,2,9,0.00
2013-8-14,78,66,52,60,54,49,91,68,44,30.17,30.07,7,1,7,0.00
2013-8-15,80,66,52,65,56,49,91,72,47,30.11,30.05,8,1,8,0.00
2013-8-16,81,68,54,64,57,51,91,70,44,30.17,30.10,8,1,8,0.00
2013-8-17,82,69,55,64,57,52,91,67,41,30.18,30.08,13,2,13,0.00
2013-8-18,83,71,57,65,59,53,89,67,46,30.11,29.98,11,2,11,0.00
2013-8-19,71,68,66,64,60,58,80,77,74,30.01,29.94,8,2,8,0.00
2013-8-22,87,75,64,70,59,55,91,60,38,30.09,29.96,11,3,11,0.00
2013-8-23,87,73,59,70,63,53,84,71,52,30.11,30.00,13,3,13,0.00
2013-8-24,90,79,71,74,70,65,82,73,57,30.04,29.91,22,8,22,0.00
2013-8-25,95,84,77,77,73,70,80,70,55,29.99,29.92,12,4,12,0.00
2013-8-30,84,78,70,69,67,63,84,70,58,29.91,29.84,12,3,12,0.00
2013-8-31,90,75,63,72,66,60,91,75,52,29.87,29.70,11,2,11,0.00
2013-9-1,75,70,64,67,62,56,89,75,63,29.95,29.71,13,3,13,0.00
2013-9-2,67,59,52,56,52,48,89,78,65,30.06,29.94,10,2,10,0.00
2013-9-3,80,63,46,62,54,44,92,75,51,30.06,29.96,10,1,10,0.00
2013-9-4,90,73,57,71,63,54,92,72,49,30.11,29.97,7,1,7,0.00
2013-9-5,87,72,62,69,62,54,86,71,55,30.18,30.06,11,4,11,0.00
2013-9-6,94,79,70,71,67,65,91,70,44,30.06,29.83,16,4,16,0.00
2013-9-7,95,81,68,74,68,64,88,67,43,29.96,29.82,14,3,14,0.00
2013-9-8,79,71,66,68,63,60,89,78,66,30.01,29.85,13,5,13,0.00
2013-9-9,84,81,78,72,71,70,79,72,64,29.73,29.66,5,2,5,0.00
2013-9-10,81,74,67,71,66,62,91,76,59,29.94,29.73,8,1,8,0.00
2013-9-11,91,74,62,66,60,52,91,64,31,30.02,29.94,12,2,12,0.00
2013-9-12,80,67,56,58,51,45,79,58,35,30.17,30.02,14,3,14,0.00
2013-9-13,80,61,45,55,46,41,87,61,34,30.23,30.06,8,2,8,0.00
2013-9-15,72,61,52,59,53,46,81,75,58,30.27,30.07,10,3,10,0.00
2013-9-16,75,55,41,51,45,38,92,70,40,30.35,30.20,11,3,11,0.00
2013-9-17,67,57,48,58,51,42,93,80,64,30.20,29.89,18,6,18,0.00
2013-9-18,79,67,60,70,64,58,95,90,75,29.89,29.67,13,5,13,0.00
2013-10-11,72,67,59,61,58,54,86,73,57,29.67,29.60,20,8,20,0.00
2013-10-12,59,52,42,54,43,36,85,72,50,30.13,29.67,15,3,15,0.00
2013-10-13,62,48,35,45,37,31,90,68,40,30.38,30.13,8,1,8,0.00
2013-10-14,54,47,37,47,40,33,91,75,56,30.34,29.89,19,5,19,0.00
2013-10-15,54,50,47,52,48,45,95,92,88,29.89,29.62,24,5,24,0.00
2013-10-16,57,46,36,45,41,32,94,82,58,29.90,29.77,13,3,13,0.00
2013-10-17,60,46,35,46,40,31,91,79,49,29.83,29.70,11,2,11,0.00
2013-10-18,54,45,38,40,36,32,93,73,45,29.91,29.78,11,2,11,0.00
2013-10-19,48,40,33,41,35,28,89,83,72,29.78,29.62,13,2,13,0.00
2013-10-20,50,38,31,42,34,27,90,84,69,29.81,29.55,12,3,12,0.00
2013-10-21,39,35,28,34,25,22,84,67,54,29.89,29.81,15,4,15,0.00
2013-10-22,40,33,24,34,28,20,90,79,67,29.96,29.88,8,1,8,0.00
2013-10-23,39,35,33,32,27,22,85,71,56,30.03,29.92,14,3,14,0.00
2013-10-24,45,38,33,32,28,22,83,68,55,30.23,30.02,12,3,12,0.00
2013-10-25,58,44,26,42,34,22,89,70,53,30.23,29.72,13,3,13,0.00
2013-10-26,52,44,35,42,32,27,74,63,52,30.02,29.72,20,5,20,0.00
2013-10-27,59,44,30,38,32,25,82,64,44,30.04,29.73,12,2,12,0.00
2013-10-28,44,38,32,31,26,21,78,62,48,30.32,30.04,15,4,15,0.00
2013-10-29,43,38,31,37,30,21,90,72,65,30.30,29.98,12,4,12,0.00
2013-10-30,50,46,40,49,44,37,96,95,90,29.98,29.58,12,3,12,0.00
2013-10-31,50,43,40,49,41,37,96,92,86,29.58,29.32,11,3,11,0.00
2013-11-1,53,44,38,40,38,32,93,79,60,29.76,29.32,9,3,11,0.00
2013-11-2,40,39,37,36,34,32,87,83,80,29.77,29.75,4,1,4,0.00
2013-11-3,55,52,50,35,34,34,56,51,46,29.82,29.78,24,14,24,0.00
2013-11-4,48,43,30,45,38,27,91,82,74,30.06,29.73,22,4,22,0.00
2013-11-5,44,35,26,36,30,23,91,81,63,30.13,29.92,15,2,15,0.00
2013-11-6,39,34,31,30,28,25,89,76,63,30.07,29.94,7,3,8,0.00
2013-11-7,35,31,28,30,28,25,93,88,82,30.13,30.04,8,3,11,0.00
2013-11-8,46,36,22,41,29,18,93,76,56,30.09,29.50,20,6,20,0.00
2013-11-9,46,42,36,41,34,27,84,74,60,30.11,29.54,17,7,17,0.00
2013-11-10,42,38,33,33,30,26,79,72,64,30.22,29.99,11,3,12,0.00
2013-11-11,39,26,17,32,17,9,85,67,53,30.60,30.01,18,6,18,0.00
2013-11-12,29,20,13,16,11,8,81,68,48,30.65,30.32,11,3,11,0.00
2013-11-13,52,38,24,37,26,14,73,62,53,30.32,29.77,14,5,14,0.00
2013-11-14,53,40,29,41,33,25,86,76,63,29.78,29.66,9,2,9,0.00
2013-11-15,57,42,25,42,34,22,91,74,52,29.74,29.55,13,3,13,0.00
2013-11-16,51,46,42,50,42,35,96,88,72,29.54,29.13,15,5,15,0.00
2013-11-17,44,40,32,41,35,26,94,83,76,29.74,29.21,19,5,19,0.00
2013-11-18,38,31,21,26,22,16,84,71,57,30.12,29.73,18,5,18,0.00
2013-11-19,48,35,19,32,26,15,90,70,52,30.13,29.80,23,8,23,0.00
2013-11-20,45,42,38,34,31,27,85,67,50,29.91,29.76,19,9,19,0.00
2013-11-21,38,31,25,36,26,17,92,84,73,30.37,29.92,15,5,15,0.00
2013-11-22,33,24,14,18,14,5,83,66,41,30.47,30.28,18,5,18,0.00
2013-11-23,21,14,8,9,4,2,79,66,47,30.69,30.46,16,4,16,0.00
2013-11-24,31,20,7,18,10,1,80,65,51,30.55,29.86,16,6,17,0.00
2013-11-25,41,34,28,30,25,18,80,68,59,29.94,29.78,17,6,17,0.00
2013-11-26,31,22,15,22,10,4,70,58,47,30.22,29.94,18,7,18,0.00
2013-11-27,25,18,8,12,8,3,81,67,55,30.22,29.83,10,3,10,0.00
2013-11-28,32,22,10,18,12,4,76,66,53,30.35,29.90,12,3,12,0.00
2013-11-29,34,24,8,22,15,3,85,71,56,30.35,29.99,14,4,14,0.00
2013-11-30,40,33,27,29,26,21,83,74,64,30.03,29.88,9,2,9,0.00
2013-12-1,35,27,17,28,21,13,87,80,72,30.12,29.87,5,1,5,0.00
2013-12-2,38,34,25,34,30,22,94,87,78,29.87,29.52,12,5,17,0.00
2013-12-3,36,35,32,34,33,31,96,94,90,29.73,29.52,10,3,11,0.00
2013-12-4,32,30,14,31,28,9,95,93,82,29.72,29.43,10,0,10,0.00
2013-12-5,13,6,0,8,0,-5,84,77,69,30.28,29.69,0,0,0,0.00
2013-12-6,5,-2,-6,-3,-7,-11,81,77,67,30.57,30.27,0,0,0,0.00
2013-12-7,2,-4,-11,-6,-10,-16,81,75,65,30.65,30.48,0,0,0,0.00
2013-12-8,13,6,-1,10,3,-6,88,85,79,30.48,29.96,0,0,0,0.00
2013-12-9,12,2,-4,9,-4,-10,88,77,67,30.05,29.79,0,0,0,0.00
2013-12-10,16,9,4,12,4,-3,89,77,68,30.20,29.70,0,0,0,0.00
2013-12-11,9,-1,-7,2,-8,-13,76,71,61,30.49,30.20,0,0,0,0.01
2013-12-12,20,14,3,12,8,-3,83,76,67,30.22,30.07,0,0,0,0.00
2013-12-13,18,15,11,12,9,6,85,78,72,30.20,30.04,0,0,0,0.00
2013-12-14,20,11,1,14,6,-5,86,80,72,30.20,30.02,0,0,0,0.00
2013-12-15,10,4,0,0,-4,-6,77,69,56,30.09,30.03,0,0,0,0.00
2013-12-16,23,12,2,20,6,-6,89,80,68,30.05,29.85,10,2,12,0.00
2013-12-17,31,23,3,27,16,-2,86,76,63,30.05,29.82,20,5,20,0.00
2013-12-18,38,24,2,29,18,-3,90,77,64,30.01,29.59,17,3,17,0.00
2013-12-19,28,20,17,24,14,10,84,79,73,30.01,29.74,20,6,20,0.00
2013-12-20,21,18,16,16,14,12,87,83,79,29.95,29.79,11,3,11,0.02
2013-12-21,24,20,17,17,15,12,84,81,76,29.93,29.79,13,3,13,0.00
2013-12-22,21,15,3,16,10,-1,85,82,76,30.18,29.87,12,4,12,0.02
2013-12-23,5,-1,-8,-1,-8,-14,81,74,62,30.43,30.18,13,4,13,0.00
2013-12-24,12,1,-14,7,-6,-19,86,73,52,30.42,30.06,15,4,15,0.00
2013-12-25,31,18,11,25,13,7,89,81,61,30.09,29.97,16,4,16,2.59
2013-12-26,28,20,6,24,15,2,88,84,81,30.11,30.00,5,1,5,0.00
2013-12-27,40,28,6,32,23,2,93,82,70,30.09,29.85,12,3,13,0.01
2013-12-28,49,37,22,35,29,18,90,76,56,29.94,29.60,22,5,22,0.00
2013-12-29,22,2,-11,18,-6,-19,84,67,54,30.25,29.94,17,6,18,0.00
2013-12-30,3,-4,-14,-1,-10,-20,83,78,69,30.22,30.09,8,2,8,0.00
2013-12-31,3,-4,-9,-4,-10,-15,84,77,70,30.32,30.12,8,2,8,0.00
2014-1-1,4,-1,-6,-4,-8,-13,75,71,67,30.40,30.30,11,4,11,0.00
2014-1-2,8,-2,-13,-4,-11,-21,74,65,50,30.42,30.29,7,2,7,0.00